Terminal Aerodrome Forecast
Issued by NWS

Home | Current Version | Previous Version | Text Only | Print | Product List | Glossary On
Versions: 1 2 3 4 5 6 7 8 9 10 11 12 13 14 15 16
487
FTUS42 KTBW 280520
TAFRSW
TAF
KRSW 280520Z 2806/2906 VRB03KT P6SM FEW070 SCT200
     FM281800 27005KT P6SM VCTS SCT035CB
     FM282300 11007KT P6SM SCT040 BKN110
     FM290300 VRB03KT P6SM SCT035 BKN250=

USA.gov is the U.S. government's official web portal to all federal, state and local government web resources and services.